sensor_id;sensor_type;location;lat;lon;timestamp;P1;durP1;ratioP1;P2;durP2;ratioP2
64938;SDS011;51453;47.738;7.420;2023-04-29T00:01:07;20.38;;;14.05;;
64938;SDS011;51453;47.738;7.420;2023-04-29T00:03:33;15.82;;;11.68;;
64938;SDS011;51453;47.738;7.420;2023-04-29T00:06:00;10.55;;;9.18;;
64938;SDS011;51453;47.738;7.420;2023-04-29T00:08:26;14.68;;;11.02;;
64938;SDS011;51453;47.738;7.420;2023-04-29T00:10:52;16.80;;;10.15;;
64938;SDS011;51453;47.738;7.420;2023-04-29T00:13:18;16.63;;;12.48;;
64938;SDS011;51453;47.738;7.420;2023-04-29T00:15:43;17.70;;;12.77;;
64938;SDS011;51453;47.738;7.420;2023-04-29T00:18:09;17.45;;;11.68;;
64938;SDS011;51453;47.738;7.420;2023-04-29T00:20:35;14.00;;;10.60;;
64938;SDS011;51453;47.738;7.420;2023-04-29T00:23:02;20.90;;;14.52;;
64938;SDS011;51453;47.738;7.420;2023-04-29T00:25:28;20.80;;;13.98;;
64938;SDS011;51453;47.738;7.420;2023-04-29T00:27:54;19.17;;;14.02;;
64938;SDS011;51453;47.738;7.420;2023-04-29T00:30:20;20.90;;;14.75;;
64938;SDS011;51453;47.738;7.420;2023-04-29T00:32:46;22.02;;;14.27;;
64938;SDS011;51453;47.738;7.420;2023-04-29T00:35:11;18.83;;;13.38;;
64938;SDS011;51453;47.738;7.420;2023-04-29T00:37:37;23.10;;;15.85;;
64938;SDS011;51453;47.738;7.420;2023-04-29T00:40:03;20.95;;;16.02;;
64938;SDS011;51453;47.738;7.420;2023-04-29T00:42:30;24.20;;;17.40;;
64938;SDS011;51453;47.738;7.420;2023-04-29T00:44:59;23.15;;;15.98;;
64938;SDS011;51453;47.738;7.420;2023-04-29T00:47:24;27.80;;;16.40;;
64938;SDS011;51453;47.738;7.420;2023-04-29T00:49:50;24.92;;;16.52;;
64938;SDS011;51453;47.738;7.420;2023-04-29T00:52:16;20.63;;;14.98;;
64938;SDS011;51453;47.738;7.420;2023-04-29T00:54:43;21.92;;;14.75;;
64938;SDS011;51453;47.738;7.420;2023-04-29T00:57:09;14.13;;;11.85;;
64938;SDS011;51453;47.738;7.420;2023-04-29T00:59:35;18.17;;;12.52;;
64938;SDS011;51453;47.738;7.420;2023-04-29T01:02:02;21.63;;;14.45;;
64938;SDS011;51453;47.738;7.420;2023-04-29T01:04:31;21.00;;;14.88;;
64938;SDS011;51453;47.738;7.420;2023-04-29T01:12:24;18.10;;;11.77;;
64938;SDS011;51453;47.738;7.420;2023-04-29T01:15:21;21.50;;;14.30;;
64938;SDS011;51453;47.738;7.420;2023-04-29T01:20:22;22.80;;;15.35;;
64938;SDS011;51453;47.738;7.420;2023-04-29T01:22:49;22.48;;;15.25;;
64938;SDS011;51453;47.738;7.420;2023-04-29T01:25:15;24.05;;;16.58;;
64938;SDS011;51453;47.738;7.420;2023-04-29T01:27:46;24.30;;;15.75;;
64938;SDS011;51453;47.738;7.420;2023-04-29T01:33:02;24.48;;;16.95;;
64938;SDS011;51453;47.738;7.420;2023-04-29T01:38:14;17.60;;;12.77;;
64938;SDS011;51453;47.738;7.420;2023-04-29T01:40:58;11.43;;;10.25;;
64938;SDS011;51453;47.738;7.420;2023-04-29T01:43:48;14.77;;;10.18;;
64938;SDS011;51453;47.738;7.420;2023-04-29T01:46:16;13.30;;;9.90;;
64938;SDS011;51453;47.738;7.420;2023-04-29T01:48:45;18.40;;;11.75;;
64938;SDS011;51453;47.738;7.420;2023-04-29T01:51:11;20.20;;;12.73;;
64938;SDS011;51453;47.738;7.420;2023-04-29T01:53:37;18.30;;;13.40;;
64938;SDS011;51453;47.738;7.420;2023-04-29T01:56:06;22.65;;;14.93;;
64938;SDS011;51453;47.738;7.420;2023-04-29T01:58:32;27.73;;;15.73;;
64938;SDS011;51453;47.738;7.420;2023-04-29T02:00:58;24.48;;;16.23;;
64938;SDS011;51453;47.738;7.420;2023-04-29T02:03:23;27.05;;;16.45;;
64938;SDS011;51453;47.738;7.420;2023-04-29T02:05:49;27.73;;;19.48;;
64938;SDS011;51453;47.738;7.420;2023-04-29T02:08:18;33.58;;;19.33;;
64938;SDS011;51453;47.738;7.420;2023-04-29T02:11:17;34.22;;;20.85;;
64938;SDS011;51453;47.738;7.420;2023-04-29T02:13:35;33.97;;;22.77;;
64938;SDS011;51453;47.738;7.420;2023-04-29T02:16:11;31.67;;;21.75;;
64938;SDS011;51453;47.738;7.420;2023-04-29T02:18:38;27.60;;;17.58;;
64938;SDS011;51453;47.738;7.420;2023-04-29T02:21:04;23.05;;;15.75;;
64938;SDS011;51453;47.738;7.420;2023-04-29T02:23:31;23.20;;;16.10;;
64938;SDS011;51453;47.738;7.420;2023-04-29T02:25:56;17.55;;;12.18;;
64938;SDS011;51453;47.738;7.420;2023-04-29T02:28:22;14.38;;;11.82;;
64938;SDS011;51453;47.738;7.420;2023-04-29T02:30:48;16.48;;;11.77;;
64938;SDS011;51453;47.738;7.420;2023-04-29T02:33:13;22.05;;;15.45;;
64938;SDS011;51453;47.738;7.420;2023-04-29T02:35:40;22.58;;;14.45;;
64938;SDS011;51453;47.738;7.420;2023-04-29T02:38:06;24.52;;;16.92;;
64938;SDS011;51453;47.738;7.420;2023-04-29T02:40:31;27.30;;;16.80;;
64938;SDS011;51453;47.738;7.420;2023-04-29T02:42:57;26.83;;;18.98;;
64938;SDS011;51453;47.738;7.420;2023-04-29T02:45:23;28.98;;;18.35;;
64938;SDS011;51453;47.738;7.420;2023-04-29T02:47:48;21.70;;;15.38;;
64938;SDS011;51453;47.738;7.420;2023-04-29T02:50:14;18.80;;;13.00;;
64938;SDS011;51453;47.738;7.420;2023-04-29T02:52:40;23.27;;;15.85;;
64938;SDS011;51453;47.738;7.420;2023-04-29T02:55:06;17.95;;;14.00;;
64938;SDS011;51453;47.738;7.420;2023-04-29T02:57:32;22.20;;;14.40;;
64938;SDS011;51453;47.738;7.420;2023-04-29T02:59:58;17.98;;;13.18;;
64938;SDS011;51453;47.738;7.420;2023-04-29T03:02:23;17.75;;;13.23;;
64938;SDS011;51453;47.738;7.420;2023-04-29T03:04:49;19.50;;;12.50;;
64938;SDS011;51453;47.738;7.420;2023-04-29T03:07:15;18.27;;;12.15;;
64938;SDS011;51453;47.738;7.420;2023-04-29T03:09:42;16.35;;;11.40;;
64938;SDS011;51453;47.738;7.420;2023-04-29T03:12:07;19.52;;;11.40;;
64938;SDS011;51453;47.738;7.420;2023-04-29T03:14:33;19.27;;;11.18;;
64938;SDS011;51453;47.738;7.420;2023-04-29T03:17:00;16.00;;;11.43;;
64938;SDS011;51453;47.738;7.420;2023-04-29T03:19:26;16.25;;;10.77;;
64938;SDS011;51453;47.738;7.420;2023-04-29T03:21:51;15.30;;;11.20;;
64938;SDS011;51453;47.738;7.420;2023-04-29T03:24:17;22.23;;;14.30;;
64938;SDS011;51453;47.738;7.420;2023-04-29T03:26:43;21.88;;;14.15;;
64938;SDS011;51453;47.738;7.420;2023-04-29T03:29:09;20.08;;;13.52;;
64938;SDS011;51453;47.738;7.420;2023-04-29T03:31:34;17.00;;;12.00;;
64938;SDS011;51453;47.738;7.420;2023-04-29T03:34:00;19.02;;;12.60;;
64938;SDS011;51453;47.738;7.420;2023-04-29T03:36:26;16.70;;;13.13;;
64938;SDS011;51453;47.738;7.420;2023-04-29T03:38:52;19.73;;;14.00;;
64938;SDS011;51453;47.738;7.420;2023-04-29T03:41:17;14.98;;;12.15;;
64938;SDS011;51453;47.738;7.420;2023-04-29T03:43:43;19.90;;;14.00;;
64938;SDS011;51453;47.738;7.420;2023-04-29T03:46:09;16.80;;;12.02;;
64938;SDS011;51453;47.738;7.420;2023-04-29T03:48:35;14.23;;;11.02;;
64938;SDS011;51453;47.738;7.420;2023-04-29T03:51:01;21.58;;;11.07;;
64938;SDS011;51453;47.738;7.420;2023-04-29T03:53:28;17.80;;;13.15;;
64938;SDS011;51453;47.738;7.420;2023-04-29T03:55:53;19.95;;;13.65;;
64938;SDS011;51453;47.738;7.420;2023-04-29T03:58:19;21.33;;;14.18;;
64938;SDS011;51453;47.738;7.420;2023-04-29T04:00:45;35.00;;;18.70;;
64938;SDS011;51453;47.738;7.420;2023-04-29T04:03:10;34.90;;;18.42;;
64938;SDS011;51453;47.738;7.420;2023-04-29T04:05:36;43.22;;;20.25;;
64938;SDS011;51453;47.738;7.420;2023-04-29T04:08:01;38.97;;;20.13;;
64938;SDS011;51453;47.738;7.420;2023-04-29T04:10:27;29.63;;;18.33;;
64938;SDS011;51453;47.738;7.420;2023-04-29T04:12:53;23.27;;;15.77;;
64938;SDS011;51453;47.738;7.420;2023-04-29T04:15:19;69.13;;;19.65;;
64938;SDS011;51453;47.738;7.420;2023-04-29T04:17:46;38.15;;;16.55;;
64938;SDS011;51453;47.738;7.420;2023-04-29T04:20:12;21.70;;;14.93;;
64938;SDS011;51453;47.738;7.420;2023-04-29T04:22:38;24.95;;;14.88;;
64938;SDS011;51453;47.738;7.420;2023-04-29T04:25:03;29.67;;;15.45;;
64938;SDS011;51453;47.738;7.420;2023-04-29T04:27:29;37.22;;;17.80;;
64938;SDS011;51453;47.738;7.420;2023-04-29T04:29:55;24.90;;;16.50;;
64938;SDS011;51453;47.738;7.420;2023-04-29T04:32:21;34.25;;;16.98;;
64938;SDS011;51453;47.738;7.420;2023-04-29T04:34:47;38.65;;;16.98;;
64938;SDS011;51453;47.738;7.420;2023-04-29T04:37:13;25.58;;;16.40;;
64938;SDS011;51453;47.738;7.420;2023-04-29T04:39:40;25.75;;;16.02;;
64938;SDS011;51453;47.738;7.420;2023-04-29T04:42:05;19.50;;;15.13;;
64938;SDS011;51453;47.738;7.420;2023-04-29T04:44:31;54.13;;;19.20;;
64938;SDS011;51453;47.738;7.420;2023-04-29T04:46:57;113.75;;;20.60;;
64938;SDS011;51453;47.738;7.420;2023-04-29T04:49:25;37.40;;;17.05;;
64938;SDS011;51453;47.738;7.420;2023-04-29T04:51:51;41.53;;;18.60;;
64938;SDS011;51453;47.738;7.420;2023-04-29T04:54:17;26.52;;;15.50;;
64938;SDS011;51453;47.738;7.420;2023-04-29T04:56:43;24.35;;;16.30;;
64938;SDS011;51453;47.738;7.420;2023-04-29T04:59:09;38.22;;;18.45;;
64938;SDS011;51453;47.738;7.420;2023-04-29T05:01:35;119.78;;;20.63;;
64938;SDS011;51453;47.738;7.420;2023-04-29T05:04:00;57.35;;;18.40;;
64938;SDS011;51453;47.738;7.420;2023-04-29T05:06:27;39.00;;;16.75;;
64938;SDS011;51453;47.738;7.420;2023-04-29T05:08:53;53.45;;;18.63;;
64938;SDS011;51453;47.738;7.420;2023-04-29T05:11:19;54.67;;;17.00;;
64938;SDS011;51453;47.738;7.420;2023-04-29T05:13:46;87.43;;;18.88;;
64938;SDS011;51453;47.738;7.420;2023-04-29T05:16:12;47.03;;;16.13;;
64938;SDS011;51453;47.738;7.420;2023-04-29T05:18:37;59.92;;;16.58;;
64938;SDS011;51453;47.738;7.420;2023-04-29T05:21:03;19.67;;;15.10;;
64938;SDS011;51453;47.738;7.420;2023-04-29T05:23:29;43.10;;;16.50;;
64938;SDS011;51453;47.738;7.420;2023-04-29T05:25:55;16.17;;;13.00;;
64938;SDS011;51453;47.738;7.420;2023-04-29T05:28:20;32.08;;;13.82;;
64938;SDS011;51453;47.738;7.420;2023-04-29T05:30:49;29.05;;;12.52;;
64938;SDS011;51453;47.738;7.420;2023-04-29T05:33:15;37.75;;;13.65;;
64938;SDS011;51453;47.738;7.420;2023-04-29T05:35:40;20.67;;;10.05;;
64938;SDS011;51453;47.738;7.420;2023-04-29T05:38:06;19.67;;;10.95;;
64938;SDS011;51453;47.738;7.420;2023-04-29T05:40:32;22.55;;;11.02;;
64938;SDS011;51453;47.738;7.420;2023-04-29T05:42:57;16.85;;;10.27;;
64938;SDS011;51453;47.738;7.420;2023-04-29T05:45:23;16.17;;;10.48;;
64938;SDS011;51453;47.738;7.420;2023-04-29T05:47:49;20.50;;;10.55;;
64938;SDS011;51453;47.738;7.420;2023-04-29T05:50:15;19.00;;;9.10;;
64938;SDS011;51453;47.738;7.420;2023-04-29T05:52:40;9.02;;;8.05;;
64938;SDS011;51453;47.738;7.420;2023-04-29T05:55:06;7.07;;;6.38;;
64938;SDS011;51453;47.738;7.420;2023-04-29T05:57:32;6.95;;;5.07;;
64938;SDS011;51453;47.738;7.420;2023-04-29T05:59:58;18.50;;;4.60;;
64938;SDS011;51453;47.738;7.420;2023-04-29T06:02:24;24.98;;;4.95;;
64938;SDS011;51453;47.738;7.420;2023-04-29T06:04:50;26.17;;;4.13;;
64938;SDS011;51453;47.738;7.420;2023-04-29T06:07:16;4.13;;;3.72;;
64938;SDS011;51453;47.738;7.420;2023-04-29T06:09:42;6.15;;;4.32;;
64938;SDS011;51453;47.738;7.420;2023-04-29T06:12:08;13.48;;;4.20;;
64938;SDS011;51453;47.738;7.420;2023-04-29T06:14:34;13.15;;;4.20;;
64938;SDS011;51453;47.738;7.420;2023-04-29T06:17:00;17.77;;;3.90;;
64938;SDS011;51453;47.738;7.420;2023-04-29T06:19:26;4.25;;;3.85;;
64938;SDS011;51453;47.738;7.420;2023-04-29T06:21:51;11.93;;;3.95;;
64938;SDS011;51453;47.738;7.420;2023-04-29T06:24:17;5.03;;;4.10;;
64938;SDS011;51453;47.738;7.420;2023-04-29T06:26:43;5.95;;;4.32;;
64938;SDS011;51453;47.738;7.420;2023-04-29T06:29:08;4.47;;;4.07;;
64938;SDS011;51453;47.738;7.420;2023-04-29T06:31:34;4.32;;;4.03;;
64938;SDS011;51453;47.738;7.420;2023-04-29T06:34:00;4.50;;;3.72;;
64938;SDS011;51453;47.738;7.420;2023-04-29T06:36:26;5.03;;;4.63;;
64938;SDS011;51453;47.738;7.420;2023-04-29T06:38:52;5.57;;;4.88;;
64938;SDS011;51453;47.738;7.420;2023-04-29T06:41:17;4.40;;;4.07;;
64938;SDS011;51453;47.738;7.420;2023-04-29T06:43:43;4.90;;;4.50;;
64938;SDS011;51453;47.738;7.420;2023-04-29T06:46:10;5.63;;;4.60;;
64938;SDS011;51453;47.738;7.420;2023-04-29T06:48:37;4.90;;;4.47;;
64938;SDS011;51453;47.738;7.420;2023-04-29T06:51:02;5.55;;;5.05;;
64938;SDS011;51453;47.738;7.420;2023-04-29T06:53:28;5.32;;;4.82;;
64938;SDS011;51453;47.738;7.420;2023-04-29T06:55:54;6.05;;;5.45;;
64938;SDS011;51453;47.738;7.420;2023-04-29T06:58:19;5.63;;;5.00;;
64938;SDS011;51453;47.738;7.420;2023-04-29T07:00:46;6.32;;;5.60;;
64938;SDS011;51453;47.738;7.420;2023-04-29T07:03:12;6.72;;;4.25;;
64938;SDS011;51453;47.738;7.420;2023-04-29T07:05:39;4.60;;;3.88;;
64938;SDS011;51453;47.738;7.420;2023-04-29T07:08:06;4.10;;;3.60;;
64938;SDS011;51453;47.738;7.420;2023-04-29T07:10:32;4.00;;;3.53;;
64938;SDS011;51453;47.738;7.420;2023-04-29T07:12:58;3.80;;;3.50;;
64938;SDS011;51453;47.738;7.420;2023-04-29T07:15:27;5.05;;;3.58;;
64938;SDS011;51453;47.738;7.420;2023-04-29T07:17:56;5.90;;;4.00;;
64938;SDS011;51453;47.738;7.420;2023-04-29T07:20:22;3.40;;;3.10;;
64938;SDS011;51453;47.738;7.420;2023-04-29T07:22:48;3.47;;;2.78;;
64938;SDS011;51453;47.738;7.420;2023-04-29T07:25:14;4.15;;;2.40;;
64938;SDS011;51453;47.738;7.420;2023-04-29T07:27:39;3.08;;;2.58;;
64938;SDS011;51453;47.738;7.420;2023-04-29T07:30:06;2.88;;;2.55;;
64938;SDS011;51453;47.738;7.420;2023-04-29T07:32:32;3.38;;;2.67;;
64938;SDS011;51453;47.738;7.420;2023-04-29T07:34:57;3.25;;;2.63;;
64938;SDS011;51453;47.738;7.420;2023-04-29T07:37:23;4.82;;;3.08;;
64938;SDS011;51453;47.738;7.420;2023-04-29T07:39:49;3.08;;;2.70;;
64938;SDS011;51453;47.738;7.420;2023-04-29T07:42:15;5.13;;;2.78;;
64938;SDS011;51453;47.738;7.420;2023-04-29T07:44:41;4.32;;;2.53;;
64938;SDS011;51453;47.738;7.420;2023-04-29T07:47:07;2.50;;;2.30;;
64938;SDS011;51453;47.738;7.420;2023-04-29T07:49:32;2.65;;;2.10;;
64938;SDS011;51453;47.738;7.420;2023-04-29T07:51:59;3.25;;;2.13;;
64938;SDS011;51453;47.738;7.420;2023-04-29T07:54:26;2.78;;;2.28;;
64938;SDS011;51453;47.738;7.420;2023-04-29T07:56:51;2.78;;;1.88;;
64938;SDS011;51453;47.738;7.420;2023-04-29T07:59:17;2.72;;;1.90;;
64938;SDS011;51453;47.738;7.420;2023-04-29T08:01:43;2.05;;;1.85;;
64938;SDS011;51453;47.738;7.420;2023-04-29T08:04:08;2.33;;;1.83;;
64938;SDS011;51453;47.738;7.420;2023-04-29T08:06:34;2.55;;;1.55;;
64938;SDS011;51453;47.738;7.420;2023-04-29T08:09:00;2.78;;;1.60;;
64938;SDS011;51453;47.738;7.420;2023-04-29T08:11:26;3.25;;;1.60;;
64938;SDS011;51453;47.738;7.420;2023-04-29T08:13:52;2.75;;;1.90;;
64938;SDS011;51453;47.738;7.420;2023-04-29T08:16:18;3.08;;;2.17;;
64938;SDS011;51453;47.738;7.420;2023-04-29T08:18:45;2.40;;;1.80;;
64938;SDS011;51453;47.738;7.420;2023-04-29T08:21:11;2.10;;;1.90;;
64938;SDS011;51453;47.738;7.420;2023-04-29T08:23:37;2.17;;;1.98;;
64938;SDS011;51453;47.738;7.420;2023-04-29T08:26:04;1.90;;;1.80;;
64938;SDS011;51453;47.738;7.420;2023-04-29T08:28:29;3.38;;;1.90;;
64938;SDS011;51453;47.738;7.420;2023-04-29T08:30:55;3.10;;;1.98;;
64938;SDS011;51453;47.738;7.420;2023-04-29T08:33:21;2.25;;;2.08;;
64938;SDS011;51453;47.738;7.420;2023-04-29T08:35:47;3.03;;;2.20;;
64938;SDS011;51453;47.738;7.420;2023-04-29T08:38:13;4.60;;;2.10;;
64938;SDS011;51453;47.738;7.420;2023-04-29T08:40:43;5.15;;;2.03;;
64938;SDS011;51453;47.738;7.420;2023-04-29T08:43:10;2.20;;;2.00;;
64938;SDS011;51453;47.738;7.420;2023-04-29T08:45:40;1.88;;;1.77;;
64938;SDS011;51453;47.738;7.420;2023-04-29T08:48:06;3.17;;;2.08;;
64938;SDS011;51453;47.738;7.420;2023-04-29T08:50:39;2.33;;;1.60;;
64938;SDS011;51453;47.738;7.420;2023-04-29T08:53:06;3.63;;;2.00;;
64938;SDS011;51453;47.738;7.420;2023-04-29T08:55:36;2.10;;;1.90;;
64938;SDS011;51453;47.738;7.420;2023-04-29T08:58:09;2.50;;;1.50;;
64938;SDS011;51453;47.738;7.420;2023-04-29T09:00:36;4.75;;;2.05;;
64938;SDS011;51453;47.738;7.420;2023-04-29T09:03:05;4.63;;;2.10;;
64938;SDS011;51453;47.738;7.420;2023-04-29T09:05:41;2.38;;;2.17;;
64938;SDS011;51453;47.738;7.420;2023-04-29T09:08:07;3.38;;;1.80;;
64938;SDS011;51453;47.738;7.420;2023-04-29T09:10:38;2.05;;;1.90;;
64938;SDS011;51453;47.738;7.420;2023-04-29T09:13:06;2.95;;;2.00;;
64938;SDS011;51453;47.738;7.420;2023-04-29T09:15:35;3.80;;;1.95;;
64938;SDS011;51453;47.738;7.420;2023-04-29T09:18:01;4.20;;;2.15;;
64938;SDS011;51453;47.738;7.420;2023-04-29T09:20:27;3.28;;;2.13;;
64938;SDS011;51453;47.738;7.420;2023-04-29T09:22:55;3.33;;;2.47;;
64938;SDS011;51453;47.738;7.420;2023-04-29T09:25:27;2.75;;;1.98;;
64938;SDS011;51453;47.738;7.420;2023-04-29T09:27:53;2.33;;;1.70;;
64938;SDS011;51453;47.738;7.420;2023-04-29T09:30:20;2.45;;;2.25;;
64938;SDS011;51453;47.738;7.420;2023-04-29T09:33:06;1.90;;;1.80;;
64938;SDS011;51453;47.738;7.420;2023-04-29T09:35:33;3.00;;;2.05;;
64938;SDS011;51453;47.738;7.420;2023-04-29T09:38:10;2.53;;;1.90;;
64938;SDS011;51453;47.738;7.420;2023-04-29T09:40:37;2.70;;;2.10;;
64938;SDS011;51453;47.738;7.420;2023-04-29T09:43:04;2.30;;;2.10;;
64938;SDS011;51453;47.738;7.420;2023-04-29T09:45:39;2.60;;;2.40;;
64938;SDS011;51453;47.738;7.420;2023-04-29T09:48:07;2.88;;;2.47;;
64938;SDS011;51453;47.738;7.420;2023-04-29T09:50:34;2.20;;;2.00;;
64938;SDS011;51453;47.738;7.420;2023-04-29T09:53:03;2.08;;;1.98;;
64938;SDS011;51453;47.738;7.420;2023-04-29T09:58:37;2.15;;;1.60;;
64938;SDS011;51453;47.738;7.420;2023-04-29T10:01:04;4.22;;;2.08;;
64938;SDS011;51453;47.738;7.420;2023-04-29T10:03:34;6.63;;;2.22;;
64938;SDS011;51453;47.738;7.420;2023-04-29T10:06:01;1.90;;;1.70;;
64938;SDS011;51453;47.738;7.420;2023-04-29T10:08:29;4.53;;;1.50;;
64938;SDS011;51453;47.738;7.420;2023-04-29T10:10:59;2.50;;;1.38;;
64938;SDS011;51453;47.738;7.420;2023-04-29T10:13:26;2.35;;;1.75;;
64938;SDS011;51453;47.738;7.420;2023-04-29T10:18:33;3.33;;;1.77;;
64938;SDS011;51453;47.738;7.420;2023-04-29T10:21:01;5.00;;;1.60;;
64938;SDS011;51453;47.738;7.420;2023-04-29T10:23:30;2.55;;;1.67;;
64938;SDS011;51453;47.738;7.420;2023-04-29T10:25:58;2.05;;;1.90;;
64938;SDS011;51453;47.738;7.420;2023-04-29T10:28:27;2.13;;;1.90;;
64938;SDS011;51453;47.738;7.420;2023-04-29T10:30:56;4.55;;;1.77;;
64938;SDS011;51453;47.738;7.420;2023-04-29T10:33:25;1.95;;;1.85;;
64938;SDS011;51453;47.738;7.420;2023-04-29T10:35:53;3.85;;;1.88;;
64938;SDS011;51453;47.738;7.420;2023-04-29T10:38:25;4.35;;;2.00;;
64938;SDS011;51453;47.738;7.420;2023-04-29T10:40:57;3.45;;;1.50;;
64938;SDS011;51453;47.738;7.420;2023-04-29T10:43:26;1.80;;;1.70;;
64938;SDS011;51453;47.738;7.420;2023-04-29T10:48:40;1.83;;;1.70;;
64938;SDS011;51453;47.738;7.420;2023-04-29T10:51:07;2.60;;;2.08;;
64938;SDS011;51453;47.738;7.420;2023-04-29T10:53:33;1.90;;;1.45;;
64938;SDS011;51453;47.738;7.420;2023-04-29T10:56:03;7.97;;;1.80;;
64938;SDS011;51453;47.738;7.420;2023-04-29T10:58:41;3.92;;;1.70;;
64938;SDS011;51453;47.738;7.420;2023-04-29T11:01:12;2.30;;;1.50;;
64938;SDS011;51453;47.738;7.420;2023-04-29T11:06:46;3.35;;;2.55;;
64938;SDS011;51453;47.738;7.420;2023-04-29T11:11:43;1.92;;;1.83;;
64938;SDS011;51453;47.738;7.420;2023-04-29T11:14:29;2.28;;;1.67;;
64938;SDS011;51453;47.738;7.420;2023-04-29T11:16:59;3.03;;;2.20;;
64938;SDS011;51453;47.738;7.420;2023-04-29T11:19:32;3.10;;;2.33;;
64938;SDS011;51453;47.738;7.420;2023-04-29T11:27:15;4.30;;;1.83;;
64938;SDS011;51453;47.738;7.420;2023-04-29T11:29:43;1.80;;;1.70;;
64938;SDS011;51453;47.738;7.420;2023-04-29T11:32:10;1.40;;;1.27;;
64938;SDS011;51453;47.738;7.420;2023-04-29T11:34:36;2.55;;;1.75;;
64938;SDS011;51453;47.738;7.420;2023-04-29T11:37:03;2.50;;;2.30;;
64938;SDS011;51453;47.738;7.420;2023-04-29T11:39:32;3.15;;;2.20;;
64938;SDS011;51453;47.738;7.420;2023-04-29T11:42:03;3.72;;;1.70;;
64938;SDS011;51453;47.738;7.420;2023-04-29T11:44:32;1.58;;;1.48;;
64938;SDS011;51453;47.738;7.420;2023-04-29T11:47:00;3.15;;;1.70;;
64938;SDS011;51453;47.738;7.420;2023-04-29T11:49:30;1.98;;;1.88;;
64938;SDS011;51453;47.738;7.420;2023-04-29T11:51:57;1.90;;;1.70;;
64938;SDS011;51453;47.738;7.420;2023-04-29T11:54:26;2.60;;;1.60;;
64938;SDS011;51453;47.738;7.420;2023-04-29T11:56:53;2.00;;;1.80;;
64938;SDS011;51453;47.738;7.420;2023-04-29T11:59:20;2.15;;;1.20;;
64938;SDS011;51453;47.738;7.420;2023-04-29T12:01:47;2.85;;;1.50;;
64938;SDS011;51453;47.738;7.420;2023-04-29T12:04:16;3.83;;;1.80;;
64938;SDS011;51453;47.738;7.420;2023-04-29T12:06:42;3.13;;;1.77;;
64938;SDS011;51453;47.738;7.420;2023-04-29T12:09:07;1.60;;;1.50;;
64938;SDS011;51453;47.738;7.420;2023-04-29T12:11:33;2.25;;;2.05;;
64938;SDS011;51453;47.738;7.420;2023-04-29T12:14:00;2.55;;;1.90;;
64938;SDS011;51453;47.738;7.420;2023-04-29T12:16:30;2.08;;;1.27;;
64938;SDS011;51453;47.738;7.420;2023-04-29T12:18:56;2.22;;;1.90;;
64938;SDS011;51453;47.738;7.420;2023-04-29T12:21:23;2.45;;;2.10;;
64938;SDS011;51453;47.738;7.420;2023-04-29T12:23:52;2.50;;;1.65;;
64938;SDS011;51453;47.738;7.420;2023-04-29T12:26:18;2.78;;;1.60;;
64938;SDS011;51453;47.738;7.420;2023-04-29T12:28:52;1.58;;;1.48;;
64938;SDS011;51453;47.738;7.420;2023-04-29T12:33:45;2.00;;;1.77;;
64938;SDS011;51453;47.738;7.420;2023-04-29T12:36:15;4.13;;;1.52;;
64938;SDS011;51453;47.738;7.420;2023-04-29T12:38:45;3.53;;;1.67;;
64938;SDS011;51453;47.738;7.420;2023-04-29T12:41:11;2.80;;;1.83;;
64938;SDS011;51453;47.738;7.420;2023-04-29T12:43:38;1.73;;;1.52;;
64938;SDS011;51453;47.738;7.420;2023-04-29T12:46:06;2.30;;;2.17;;
64938;SDS011;51453;47.738;7.420;2023-04-29T12:48:33;4.13;;;2.08;;
64938;SDS011;51453;47.738;7.420;2023-04-29T12:51:01;2.30;;;2.10;;
64938;SDS011;51453;47.738;7.420;2023-04-29T12:53:30;2.83;;;2.13;;
64938;SDS011;51453;47.738;7.420;2023-04-29T12:55:56;2.20;;;2.10;;
64938;SDS011;51453;47.738;7.420;2023-04-29T12:58:22;2.10;;;1.70;;
64938;SDS011;51453;47.738;7.420;2023-04-29T13:00:48;1.80;;;1.70;;
64938;SDS011;51453;47.738;7.420;2023-04-29T13:03:14;5.28;;;2.70;;
64938;SDS011;51453;47.738;7.420;2023-04-29T13:05:40;3.92;;;2.00;;
64938;SDS011;51453;47.738;7.420;2023-04-29T13:08:06;4.75;;;2.63;;
64938;SDS011;51453;47.738;7.420;2023-04-29T13:10:32;3.63;;;2.10;;
64938;SDS011;51453;47.738;7.420;2023-04-29T13:12:59;4.35;;;2.40;;
64938;SDS011;51453;47.738;7.420;2023-04-29T13:15:25;2.95;;;2.05;;
64938;SDS011;51453;47.738;7.420;2023-04-29T13:17:51;4.25;;;2.67;;
64938;SDS011;51453;47.738;7.420;2023-04-29T13:20:17;2.17;;;1.98;;
64938;SDS011;51453;47.738;7.420;2023-04-29T13:22:43;5.03;;;2.25;;
64938;SDS011;51453;47.738;7.420;2023-04-29T13:25:09;2.10;;;1.90;;
64938;SDS011;51453;47.738;7.420;2023-04-29T13:27:40;3.63;;;1.90;;
64938;SDS011;51453;47.738;7.420;2023-04-29T13:30:05;3.05;;;2.03;;
64938;SDS011;51453;47.738;7.420;2023-04-29T13:32:31;2.38;;;2.10;;
64938;SDS011;51453;47.738;7.420;2023-04-29T13:34:57;3.05;;;2.20;;
64938;SDS011;51453;47.738;7.420;2023-04-29T13:37:23;2.40;;;2.20;;
64938;SDS011;51453;47.738;7.420;2023-04-29T13:39:48;2.53;;;2.33;;
64938;SDS011;51453;47.738;7.420;2023-04-29T13:42:14;7.65;;;2.20;;
64938;SDS011;51453;47.738;7.420;2023-04-29T13:44:40;2.65;;;1.70;;
64938;SDS011;51453;47.738;7.420;2023-04-29T13:47:14;5.15;;;2.33;;
64938;SDS011;51453;47.738;7.420;2023-04-29T13:49:40;2.63;;;2.33;;
64938;SDS011;51453;47.738;7.420;2023-04-29T13:52:08;2.83;;;2.38;;
64938;SDS011;51453;47.738;7.420;2023-04-29T13:54:35;3.17;;;2.40;;
64938;SDS011;51453;47.738;7.420;2023-04-29T13:57:01;7.35;;;2.90;;
64938;SDS011;51453;47.738;7.420;2023-04-29T13:59:28;9.63;;;2.50;;
64938;SDS011;51453;47.738;7.420;2023-04-29T14:01:55;3.45;;;2.88;;
64938;SDS011;51453;47.738;7.420;2023-04-29T14:04:21;2.70;;;2.50;;
64938;SDS011;51453;47.738;7.420;2023-04-29T14:06:46;4.60;;;2.20;;
64938;SDS011;51453;47.738;7.420;2023-04-29T14:09:12;2.45;;;2.22;;
64938;SDS011;51453;47.738;7.420;2023-04-29T14:11:38;2.70;;;2.50;;
64938;SDS011;51453;47.738;7.420;2023-04-29T14:14:03;2.92;;;2.70;;
64938;SDS011;51453;47.738;7.420;2023-04-29T14:16:29;4.43;;;2.90;;
64938;SDS011;51453;47.738;7.420;2023-04-29T14:18:56;3.65;;;2.55;;
64938;SDS011;51453;47.738;7.420;2023-04-29T14:21:21;4.28;;;3.13;;
64938;SDS011;51453;47.738;7.420;2023-04-29T14:23:47;4.00;;;3.20;;
64938;SDS011;51453;47.738;7.420;2023-04-29T14:26:13;3.42;;;3.13;;
64938;SDS011;51453;47.738;7.420;2023-04-29T14:28:39;3.63;;;3.33;;
64938;SDS011;51453;47.738;7.420;2023-04-29T14:31:05;3.28;;;2.30;;
64938;SDS011;51453;47.738;7.420;2023-04-29T14:33:30;3.65;;;3.00;;
64938;SDS011;51453;47.738;7.420;2023-04-29T14:35:56;4.20;;;3.45;;
64938;SDS011;51453;47.738;7.420;2023-04-29T14:38:22;4.63;;;3.03;;
64938;SDS011;51453;47.738;7.420;2023-04-29T14:40:48;3.28;;;2.97;;
64938;SDS011;51453;47.738;7.420;2023-04-29T14:43:14;3.55;;;2.83;;
64938;SDS011;51453;47.738;7.420;2023-04-29T14:45:39;3.30;;;3.05;;
64938;SDS011;51453;47.738;7.420;2023-04-29T14:48:05;3.13;;;2.92;;
64938;SDS011;51453;47.738;7.420;2023-04-29T14:50:31;3.47;;;2.80;;
64938;SDS011;51453;47.738;7.420;2023-04-29T14:52:57;3.85;;;3.15;;
64938;SDS011;51453;47.738;7.420;2023-04-29T14:55:24;4.60;;;2.95;;
64938;SDS011;51453;47.738;7.420;2023-04-29T14:57:49;3.97;;;3.00;;
64938;SDS011;51453;47.738;7.420;2023-04-29T15:00:15;2.85;;;2.20;;
64938;SDS011;51453;47.738;7.420;2023-04-29T15:02:41;4.10;;;2.13;;
64938;SDS011;51453;47.738;7.420;2023-04-29T15:05:06;2.83;;;2.25;;
64938;SDS011;51453;47.738;7.420;2023-04-29T15:07:32;3.65;;;2.20;;
64938;SDS011;51453;47.738;7.420;2023-04-29T15:09:58;4.25;;;2.08;;
64938;SDS011;51453;47.738;7.420;2023-04-29T15:12:23;3.10;;;2.40;;